sensor_id;sensor_type;location;lat;lon;timestamp;temperature;humidity
7576;DHT22;3829;50.798;4.358;2023-04-22T00:00:52;8.60;99.90
7576;DHT22;3829;50.798;4.358;2023-04-22T00:03:19;8.60;99.90
7576;DHT22;3829;50.798;4.358;2023-04-22T00:05:46;8.60;99.90
7576;DHT22;3829;50.798;4.358;2023-04-22T00:08:12;8.40;99.90
7576;DHT22;3829;50.798;4.358;2023-04-22T00:10:38;8.30;99.90
7576;DHT22;3829;50.798;4.358;2023-04-22T00:13:04;8.30;99.90
7576;DHT22;3829;50.798;4.358;2023-04-22T00:15:29;8.30;99.90
7576;DHT22;3829;50.798;4.358;2023-04-22T00:17:56;8.30;99.90
7576;DHT22;3829;50.798;4.358;2023-04-22T00:20:22;8.30;99.90
7576;DHT22;3829;50.798;4.358;2023-04-22T00:22:48;8.30;99.90
7576;DHT22;3829;50.798;4.358;2023-04-22T00:25:15;8.40;99.90
7576;DHT22;3829;50.798;4.358;2023-04-22T00:27:40;8.40;99.90
7576;DHT22;3829;50.798;4.358;2023-04-22T00:30:06;8.30;99.90
7576;DHT22;3829;50.798;4.358;2023-04-22T00:32:32;8.30;99.90
7576;DHT22;3829;50.798;4.358;2023-04-22T00:34:58;8.30;99.90
7576;DHT22;3829;50.798;4.358;2023-04-22T00:37:24;8.30;99.90
7576;DHT22;3829;50.798;4.358;2023-04-22T00:39:50;8.30;99.90
7576;DHT22;3829;50.798;4.358;2023-04-22T00:42:16;8.20;99.90
7576;DHT22;3829;50.798;4.358;2023-04-22T00:44:41;8.00;99.90
7576;DHT22;3829;50.798;4.358;2023-04-22T00:47:08;7.90;99.90
7576;DHT22;3829;50.798;4.358;2023-04-22T00:49:34;7.80;99.90
7576;DHT22;3829;50.798;4.358;2023-04-22T00:52:01;7.80;99.90
7576;DHT22;3829;50.798;4.358;2023-04-22T00:54:27;7.80;99.90
7576;DHT22;3829;50.798;4.358;2023-04-22T00:56:53;7.80;99.90
7576;DHT22;3829;50.798;4.358;2023-04-22T00:59:20;7.90;99.90
7576;DHT22;3829;50.798;4.358;2023-04-22T01:01:45;7.90;99.90
7576;DHT22;3829;50.798;4.358;2023-04-22T01:04:11;8.00;99.90
7576;DHT22;3829;50.798;4.358;2023-04-22T01:06:39;8.10;99.90
7576;DHT22;3829;50.798;4.358;2023-04-22T01:09:06;8.00;99.90
7576;DHT22;3829;50.798;4.358;2023-04-22T01:11:33;7.90;99.90
7576;DHT22;3829;50.798;4.358;2023-04-22T01:13:59;8.00;99.90
7576;DHT22;3829;50.798;4.358;2023-04-22T01:16:25;7.90;99.90
7576;DHT22;3829;50.798;4.358;2023-04-22T01:18:53;8.00;99.90
7576;DHT22;3829;50.798;4.358;2023-04-22T01:21:18;7.90;99.90
7576;DHT22;3829;50.798;4.358;2023-04-22T01:23:44;7.90;99.90
7576;DHT22;3829;50.798;4.358;2023-04-22T01:26:10;7.90;99.90
7576;DHT22;3829;50.798;4.358;2023-04-22T01:28:36;7.80;99.90
7576;DHT22;3829;50.798;4.358;2023-04-22T01:31:02;7.90;99.90
7576;DHT22;3829;50.798;4.358;2023-04-22T01:33:28;7.90;99.90
7576;DHT22;3829;50.798;4.358;2023-04-22T01:35:53;7.90;99.90
7576;DHT22;3829;50.798;4.358;2023-04-22T01:38:19;7.90;99.90
7576;DHT22;3829;50.798;4.358;2023-04-22T01:40:45;7.80;99.90
7576;DHT22;3829;50.798;4.358;2023-04-22T01:43:11;7.80;99.90
7576;DHT22;3829;50.798;4.358;2023-04-22T01:45:36;7.70;99.90
7576;DHT22;3829;50.798;4.358;2023-04-22T01:48:03;7.80;99.90
7576;DHT22;3829;50.798;4.358;2023-04-22T01:50:28;7.80;99.90
7576;DHT22;3829;50.798;4.358;2023-04-22T01:52:54;7.90;99.90
7576;DHT22;3829;50.798;4.358;2023-04-22T01:55:20;7.90;99.90
7576;DHT22;3829;50.798;4.358;2023-04-22T01:57:46;8.00;99.90
7576;DHT22;3829;50.798;4.358;2023-04-22T02:00:12;8.00;99.90
7576;DHT22;3829;50.798;4.358;2023-04-22T02:02:37;8.00;99.90
7576;DHT22;3829;50.798;4.358;2023-04-22T02:05:05;8.00;99.90
7576;DHT22;3829;50.798;4.358;2023-04-22T02:07:31;8.00;99.90
7576;DHT22;3829;50.798;4.358;2023-04-22T02:09:57;8.10;99.90
7576;DHT22;3829;50.798;4.358;2023-04-22T02:12:22;8.10;99.90
7576;DHT22;3829;50.798;4.358;2023-04-22T02:14:48;8.20;99.90
7576;DHT22;3829;50.798;4.358;2023-04-22T02:17:13;8.20;99.90
7576;DHT22;3829;50.798;4.358;2023-04-22T02:19:42;8.20;99.90
7576;DHT22;3829;50.798;4.358;2023-04-22T02:22:09;8.10;99.90
7576;DHT22;3829;50.798;4.358;2023-04-22T02:24:34;8.10;99.90
7576;DHT22;3829;50.798;4.358;2023-04-22T02:27:00;8.10;99.90
7576;DHT22;3829;50.798;4.358;2023-04-22T02:29:26;8.20;99.90
7576;DHT22;3829;50.798;4.358;2023-04-22T02:31:51;8.30;99.90
7576;DHT22;3829;50.798;4.358;2023-04-22T02:34:17;8.30;99.90
7576;DHT22;3829;50.798;4.358;2023-04-22T02:36:42;8.30;99.90
7576;DHT22;3829;50.798;4.358;2023-04-22T02:39:08;8.30;99.90
7576;DHT22;3829;50.798;4.358;2023-04-22T02:41:34;8.20;99.90
7576;DHT22;3829;50.798;4.358;2023-04-22T02:44:00;8.20;99.90
7576;DHT22;3829;50.798;4.358;2023-04-22T02:46:25;8.20;99.90
7576;DHT22;3829;50.798;4.358;2023-04-22T02:48:51;8.30;99.90
7576;DHT22;3829;50.798;4.358;2023-04-22T02:51:17;8.40;99.90
7576;DHT22;3829;50.798;4.358;2023-04-22T02:53:42;8.40;99.90
7576;DHT22;3829;50.798;4.358;2023-04-22T02:56:08;8.40;99.90
7576;DHT22;3829;50.798;4.358;2023-04-22T02:58:34;8.30;99.90
7576;DHT22;3829;50.798;4.358;2023-04-22T03:01:00;8.40;99.90
7576;DHT22;3829;50.798;4.358;2023-04-22T03:03:26;8.40;99.90
7576;DHT22;3829;50.798;4.358;2023-04-22T03:05:51;8.40;99.90
7576;DHT22;3829;50.798;4.358;2023-04-22T03:08:18;8.40;99.90
7576;DHT22;3829;50.798;4.358;2023-04-22T03:10:44;8.40;99.90
7576;DHT22;3829;50.798;4.358;2023-04-22T03:13:11;8.40;99.90
7576;DHT22;3829;50.798;4.358;2023-04-22T03:15:39;8.40;99.90
7576;DHT22;3829;50.798;4.358;2023-04-22T03:18:05;8.20;99.90
7576;DHT22;3829;50.798;4.358;2023-04-22T03:20:30;8.10;99.90
7576;DHT22;3829;50.798;4.358;2023-04-22T03:22:56;8.10;99.90
7576;DHT22;3829;50.798;4.358;2023-04-22T03:25:22;8.20;99.90
7576;DHT22;3829;50.798;4.358;2023-04-22T03:27:47;8.30;99.90
7576;DHT22;3829;50.798;4.358;2023-04-22T03:30:13;8.40;99.90
7576;DHT22;3829;50.798;4.358;2023-04-22T03:32:38;8.40;99.90
7576;DHT22;3829;50.798;4.358;2023-04-22T03:35:04;8.40;99.90
7576;DHT22;3829;50.798;4.358;2023-04-22T03:37:30;8.50;99.90
7576;DHT22;3829;50.798;4.358;2023-04-22T03:39:55;8.50;99.90
7576;DHT22;3829;50.798;4.358;2023-04-22T03:42:21;8.60;99.90
7576;DHT22;3829;50.798;4.358;2023-04-22T03:44:46;8.60;99.90
7576;DHT22;3829;50.798;4.358;2023-04-22T03:47:12;8.50;99.90
7576;DHT22;3829;50.798;4.358;2023-04-22T03:49:38;8.30;99.90
7576;DHT22;3829;50.798;4.358;2023-04-22T03:52:03;8.20;99.90
7576;DHT22;3829;50.798;4.358;2023-04-22T03:54:29;8.20;99.90
7576;DHT22;3829;50.798;4.358;2023-04-22T03:56:55;8.10;99.90
7576;DHT22;3829;50.798;4.358;2023-04-22T03:59:20;8.20;99.90
7576;DHT22;3829;50.798;4.358;2023-04-22T04:01:46;8.10;99.90
7576;DHT22;3829;50.798;4.358;2023-04-22T04:04:12;8.00;99.90
7576;DHT22;3829;50.798;4.358;2023-04-22T04:06:38;7.90;99.90
7576;DHT22;3829;50.798;4.358;2023-04-22T04:09:04;7.90;99.90
7576;DHT22;3829;50.798;4.358;2023-04-22T04:11:30;7.90;99.90
7576;DHT22;3829;50.798;4.358;2023-04-22T04:13:55;7.90;99.90
7576;DHT22;3829;50.798;4.358;2023-04-22T04:16:21;7.80;99.90
7576;DHT22;3829;50.798;4.358;2023-04-22T04:18:50;7.90;99.90
7576;DHT22;3829;50.798;4.358;2023-04-22T04:21:16;7.90;99.90
7576;DHT22;3829;50.798;4.358;2023-04-22T04:23:42;7.90;99.90
7576;DHT22;3829;50.798;4.358;2023-04-22T04:26:08;7.90;99.90
7576;DHT22;3829;50.798;4.358;2023-04-22T04:28:33;8.00;99.90
7576;DHT22;3829;50.798;4.358;2023-04-22T04:30:59;8.00;99.90
7576;DHT22;3829;50.798;4.358;2023-04-22T04:33:28;8.20;99.90
7576;DHT22;3829;50.798;4.358;2023-04-22T04:35:54;8.20;99.90
7576;DHT22;3829;50.798;4.358;2023-04-22T04:38:19;8.10;99.90
7576;DHT22;3829;50.798;4.358;2023-04-22T04:40:46;8.10;99.90
7576;DHT22;3829;50.798;4.358;2023-04-22T04:43:14;8.10;99.90
7576;DHT22;3829;50.798;4.358;2023-04-22T04:45:40;8.10;99.90
7576;DHT22;3829;50.798;4.358;2023-04-22T04:48:12;8.10;99.90
7576;DHT22;3829;50.798;4.358;2023-04-22T04:50:40;8.10;99.90
7576;DHT22;3829;50.798;4.358;2023-04-22T04:53:06;8.10;99.90
7576;DHT22;3829;50.798;4.358;2023-04-22T04:55:32;8.20;99.90
7576;DHT22;3829;50.798;4.358;2023-04-22T04:57:58;8.20;99.90
7576;DHT22;3829;50.798;4.358;2023-04-22T05:00:23;8.20;99.90
7576;DHT22;3829;50.798;4.358;2023-04-22T05:02:49;8.30;99.90
7576;DHT22;3829;50.798;4.358;2023-04-22T05:05:14;8.20;99.90
7576;DHT22;3829;50.798;4.358;2023-04-22T05:07:40;8.20;99.90
7576;DHT22;3829;50.798;4.358;2023-04-22T05:10:06;8.20;99.90
7576;DHT22;3829;50.798;4.358;2023-04-22T05:12:31;8.20;99.90
7576;DHT22;3829;50.798;4.358;2023-04-22T05:14:58;8.20;99.90
7576;DHT22;3829;50.798;4.358;2023-04-22T05:17:23;8.30;99.90
7576;DHT22;3829;50.798;4.358;2023-04-22T05:19:49;8.30;99.90
7576;DHT22;3829;50.798;4.358;2023-04-22T05:22:15;8.30;99.90
7576;DHT22;3829;50.798;4.358;2023-04-22T05:24:42;8.30;99.90
7576;DHT22;3829;50.798;4.358;2023-04-22T05:27:08;8.40;99.90
7576;DHT22;3829;50.798;4.358;2023-04-22T05:29:33;8.40;99.90
7576;DHT22;3829;50.798;4.358;2023-04-22T05:31:59;8.50;99.90
7576;DHT22;3829;50.798;4.358;2023-04-22T05:34:25;8.50;99.90
7576;DHT22;3829;50.798;4.358;2023-04-22T05:36:50;8.50;99.90
7576;DHT22;3829;50.798;4.358;2023-04-22T05:39:16;8.70;99.90
7576;DHT22;3829;50.798;4.358;2023-04-22T05:41:41;8.70;99.90
7576;DHT22;3829;50.798;4.358;2023-04-22T05:44:07;8.80;99.90
7576;DHT22;3829;50.798;4.358;2023-04-22T05:46:33;8.90;99.90
7576;DHT22;3829;50.798;4.358;2023-04-22T05:48:58;8.90;99.90
7576;DHT22;3829;50.798;4.358;2023-04-22T05:51:24;9.10;99.90
7576;DHT22;3829;50.798;4.358;2023-04-22T05:53:50;9.30;99.90
7576;DHT22;3829;50.798;4.358;2023-04-22T05:56:15;9.60;99.90
7576;DHT22;3829;50.798;4.358;2023-04-22T05:58:41;9.80;99.90
7576;DHT22;3829;50.798;4.358;2023-04-22T06:01:08;9.90;99.90
7576;DHT22;3829;50.798;4.358;2023-04-22T06:03:33;10.10;99.90
7576;DHT22;3829;50.798;4.358;2023-04-22T06:05:59;10.30;99.90
7576;DHT22;3829;50.798;4.358;2023-04-22T06:08:25;10.40;99.90
7576;DHT22;3829;50.798;4.358;2023-04-22T06:10:51;10.50;99.90
7576;DHT22;3829;50.798;4.358;2023-04-22T06:13:17;10.60;99.90
7576;DHT22;3829;50.798;4.358;2023-04-22T06:15:42;10.50;99.90
7576;DHT22;3829;50.798;4.358;2023-04-22T06:18:08;10.50;99.90
7576;DHT22;3829;50.798;4.358;2023-04-22T06:20:33;10.40;99.90
7576;DHT22;3829;50.798;4.358;2023-04-22T06:23:00;10.50;99.90
7576;DHT22;3829;50.798;4.358;2023-04-22T06:25:26;10.70;99.90
7576;DHT22;3829;50.798;4.358;2023-04-22T06:27:52;10.80;99.90
7576;DHT22;3829;50.798;4.358;2023-04-22T06:30:17;10.80;99.90
7576;DHT22;3829;50.798;4.358;2023-04-22T06:32:43;10.80;99.90
7576;DHT22;3829;50.798;4.358;2023-04-22T06:35:09;10.90;99.90
7576;DHT22;3829;50.798;4.358;2023-04-22T06:37:34;11.00;99.90
7576;DHT22;3829;50.798;4.358;2023-04-22T06:40:01;11.00;99.90
7576;DHT22;3829;50.798;4.358;2023-04-22T06:42:26;11.20;99.90
7576;DHT22;3829;50.798;4.358;2023-04-22T06:44:52;11.10;99.90
7576;DHT22;3829;50.798;4.358;2023-04-22T06:47:17;11.20;99.90
7576;DHT22;3829;50.798;4.358;2023-04-22T06:49:43;11.30;99.90
7576;DHT22;3829;50.798;4.358;2023-04-22T06:52:09;11.20;99.90
7576;DHT22;3829;50.798;4.358;2023-04-22T06:54:35;11.00;99.90
7576;DHT22;3829;50.798;4.358;2023-04-22T06:57:01;10.90;99.90
7576;DHT22;3829;50.798;4.358;2023-04-22T06:59:26;10.70;99.90
7576;DHT22;3829;50.798;4.358;2023-04-22T07:01:52;10.80;99.90
7576;DHT22;3829;50.798;4.358;2023-04-22T07:04:17;10.70;99.90
7576;DHT22;3829;50.798;4.358;2023-04-22T07:06:44;10.80;99.90
7576;DHT22;3829;50.798;4.358;2023-04-22T07:09:10;10.80;99.90
7576;DHT22;3829;50.798;4.358;2023-04-22T07:11:35;11.00;99.90
7576;DHT22;3829;50.798;4.358;2023-04-22T07:14:01;11.30;99.90
7576;DHT22;3829;50.798;4.358;2023-04-22T07:16:27;11.50;99.90
7576;DHT22;3829;50.798;4.358;2023-04-22T07:18:53;11.60;99.90
7576;DHT22;3829;50.798;4.358;2023-04-22T07:21:18;11.60;99.90
7576;DHT22;3829;50.798;4.358;2023-04-22T07:23:44;11.50;99.90
7576;DHT22;3829;50.798;4.358;2023-04-22T07:26:10;11.60;99.90
7576;DHT22;3829;50.798;4.358;2023-04-22T07:28:35;11.70;99.90
7576;DHT22;3829;50.798;4.358;2023-04-22T07:31:01;11.60;99.90
7576;DHT22;3829;50.798;4.358;2023-04-22T07:33:27;11.80;99.90
7576;DHT22;3829;50.798;4.358;2023-04-22T07:35:52;11.70;99.90
7576;DHT22;3829;50.798;4.358;2023-04-22T07:38:18;11.70;99.90
7576;DHT22;3829;50.798;4.358;2023-04-22T07:40:44;11.70;99.90
7576;DHT22;3829;50.798;4.358;2023-04-22T07:43:09;11.60;99.90
7576;DHT22;3829;50.798;4.358;2023-04-22T07:45:35;12.00;99.90
7576;DHT22;3829;50.798;4.358;2023-04-22T07:48:01;12.30;99.90
7576;DHT22;3829;50.798;4.358;2023-04-22T07:50:26;12.60;99.90
7576;DHT22;3829;50.798;4.358;2023-04-22T07:52:52;12.40;99.90
7576;DHT22;3829;50.798;4.358;2023-04-22T07:55:17;12.30;99.90
7576;DHT22;3829;50.798;4.358;2023-04-22T07:57:43;12.50;99.90
7576;DHT22;3829;50.798;4.358;2023-04-22T08:00:09;12.50;99.90
7576;DHT22;3829;50.798;4.358;2023-04-22T08:02:35;12.60;99.90
7576;DHT22;3829;50.798;4.358;2023-04-22T08:05:00;12.60;99.90
7576;DHT22;3829;50.798;4.358;2023-04-22T08:07:26;12.60;99.90
7576;DHT22;3829;50.798;4.358;2023-04-22T08:09:52;12.80;99.90
7576;DHT22;3829;50.798;4.358;2023-04-22T08:12:18;13.10;99.90
7576;DHT22;3829;50.798;4.358;2023-04-22T08:14:43;13.40;99.90
7576;DHT22;3829;50.798;4.358;2023-04-22T08:17:09;14.00;99.90
7576;DHT22;3829;50.798;4.358;2023-04-22T08:19:34;14.40;99.90
7576;DHT22;3829;50.798;4.358;2023-04-22T08:22:00;14.60;99.90
7576;DHT22;3829;50.798;4.358;2023-04-22T08:24:26;15.10;99.90
7576;DHT22;3829;50.798;4.358;2023-04-22T08:26:51;14.90;99.90
7576;DHT22;3829;50.798;4.358;2023-04-22T08:29:17;14.80;99.90
7576;DHT22;3829;50.798;4.358;2023-04-22T08:31:42;14.70;99.90
7576;DHT22;3829;50.798;4.358;2023-04-22T08:34:08;14.80;99.90
7576;DHT22;3829;50.798;4.358;2023-04-22T08:36:34;14.90;99.90
7576;DHT22;3829;50.798;4.358;2023-04-22T08:38:59;15.10;99.90
7576;DHT22;3829;50.798;4.358;2023-04-22T08:41:25;15.20;99.90
7576;DHT22;3829;50.798;4.358;2023-04-22T08:43:52;15.40;99.90
7576;DHT22;3829;50.798;4.358;2023-04-22T08:46:17;15.60;99.90
7576;DHT22;3829;50.798;4.358;2023-04-22T08:48:48;15.90;99.90
7576;DHT22;3829;50.798;4.358;2023-04-22T08:51:15;15.90;99.90
7576;DHT22;3829;50.798;4.358;2023-04-22T08:53:43;15.90;99.90
7576;DHT22;3829;50.798;4.358;2023-04-22T08:56:10;16.00;99.90
7576;DHT22;3829;50.798;4.358;2023-04-22T08:58:37;16.00;99.90
7576;DHT22;3829;50.798;4.358;2023-04-22T09:01:03;15.80;99.90
7576;DHT22;3829;50.798;4.358;2023-04-22T09:03:29;15.60;99.90
7576;DHT22;3829;50.798;4.358;2023-04-22T09:05:56;15.50;99.90
7576;DHT22;3829;50.798;4.358;2023-04-22T09:08:22;15.50;99.90
7576;DHT22;3829;50.798;4.358;2023-04-22T09:10:49;15.70;99.90
7576;DHT22;3829;50.798;4.358;2023-04-22T09:13:15;15.90;99.90
7576;DHT22;3829;50.798;4.358;2023-04-22T09:15:42;16.10;99.90
7576;DHT22;3829;50.798;4.358;2023-04-22T09:18:08;15.70;99.90
7576;DHT22;3829;50.798;4.358;2023-04-22T09:20:34;15.40;99.90
7576;DHT22;3829;50.798;4.358;2023-04-22T09:23:02;15.20;99.90
7576;DHT22;3829;50.798;4.358;2023-04-22T09:25:28;15.00;99.90
7576;DHT22;3829;50.798;4.358;2023-04-22T09:27:56;14.80;99.90
7576;DHT22;3829;50.798;4.358;2023-04-22T09:30:26;14.90;99.90
7576;DHT22;3829;50.798;4.358;2023-04-22T09:32:54;14.70;99.90
7576;DHT22;3829;50.798;4.358;2023-04-22T09:35:30;14.60;99.90
7576;DHT22;3829;50.798;4.358;2023-04-22T09:37:57;14.50;99.90
7576;DHT22;3829;50.798;4.358;2023-04-22T09:40:23;14.30;99.90
7576;DHT22;3829;50.798;4.358;2023-04-22T09:42:51;14.00;99.90
7576;DHT22;3829;50.798;4.358;2023-04-22T09:45:30;13.80;99.90
7576;DHT22;3829;50.798;4.358;2023-04-22T09:47:59;13.70;99.90
7576;DHT22;3829;50.798;4.358;2023-04-22T09:50:26;13.70;99.90
7576;DHT22;3829;50.798;4.358;2023-04-22T09:52:57;13.70;99.90
7576;DHT22;3829;50.798;4.358;2023-04-22T09:55:24;13.80;99.90
7576;DHT22;3829;50.798;4.358;2023-04-22T09:57:53;13.70;99.90
7576;DHT22;3829;50.798;4.358;2023-04-22T10:00:19;13.60;99.90
7576;DHT22;3829;50.798;4.358;2023-04-22T10:02:44;13.60;99.90
7576;DHT22;3829;50.798;4.358;2023-04-22T10:05:11;13.50;99.90
7576;DHT22;3829;50.798;4.358;2023-04-22T10:07:40;13.40;99.90
7576;DHT22;3829;50.798;4.358;2023-04-22T10:10:08;13.50;99.90
7576;DHT22;3829;50.798;4.358;2023-04-22T10:12:35;13.40;99.90
7576;DHT22;3829;50.798;4.358;2023-04-22T10:15:02;13.40;99.90
7576;DHT22;3829;50.798;4.358;2023-04-22T10:17:31;13.50;99.90
7576;DHT22;3829;50.798;4.358;2023-04-22T10:19:59;13.50;99.90
7576;DHT22;3829;50.798;4.358;2023-04-22T10:22:30;13.60;99.90
7576;DHT22;3829;50.798;4.358;2023-04-22T10:24:57;13.70;99.90
7576;DHT22;3829;50.798;4.358;2023-04-22T10:27:23;13.70;99.90
7576;DHT22;3829;50.798;4.358;2023-04-22T10:29:49;13.70;99.90
7576;DHT22;3829;50.798;4.358;2023-04-22T10:32:24;13.80;99.90
7576;DHT22;3829;50.798;4.358;2023-04-22T10:35:06;13.80;99.90
7576;DHT22;3829;50.798;4.358;2023-04-22T10:37:33;13.80;99.90
7576;DHT22;3829;50.798;4.358;2023-04-22T10:40:10;13.90;99.90
7576;DHT22;3829;50.798;4.358;2023-04-22T10:42:38;13.90;99.90
7576;DHT22;3829;50.798;4.358;2023-04-22T10:45:05;14.00;99.90
7576;DHT22;3829;50.798;4.358;2023-04-22T10:47:34;14.10;99.90
7576;DHT22;3829;50.798;4.358;2023-04-22T10:50:12;14.00;99.90
7576;DHT22;3829;50.798;4.358;2023-04-22T10:52:40;14.00;99.90
7576;DHT22;3829;50.798;4.358;2023-04-22T10:55:06;14.00;99.90
7576;DHT22;3829;50.798;4.358;2023-04-22T10:57:37;14.10;99.90
7576;DHT22;3829;50.798;4.358;2023-04-22T11:00:17;14.10;99.90
7576;DHT22;3829;50.798;4.358;2023-04-22T11:02:44;14.10;99.90
7576;DHT22;3829;50.798;4.358;2023-04-22T11:05:19;14.00;99.90
7576;DHT22;3829;50.798;4.358;2023-04-22T11:07:47;14.00;99.90
7576;DHT22;3829;50.798;4.358;2023-04-22T11:10:34;14.10;99.90
7576;DHT22;3829;50.798;4.358;2023-04-22T11:13:00;14.10;99.90
7576;DHT22;3829;50.798;4.358;2023-04-22T11:15:28;14.00;99.90
7576;DHT22;3829;50.798;4.358;2023-04-22T11:17:54;14.10;99.90
7576;DHT22;3829;50.798;4.358;2023-04-22T11:20:20;14.10;99.90
7576;DHT22;3829;50.798;4.358;2023-04-22T11:22:49;14.20;99.90
7576;DHT22;3829;50.798;4.358;2023-04-22T11:25:15;14.20;99.90
7576;DHT22;3829;50.798;4.358;2023-04-22T11:27:42;14.10;99.90
7576;DHT22;3829;50.798;4.358;2023-04-22T11:30:11;13.90;99.90
7576;DHT22;3829;50.798;4.358;2023-04-22T11:32:42;13.70;99.90
7576;DHT22;3829;50.798;4.358;2023-04-22T11:35:10;13.60;99.90
7576;DHT22;3829;50.798;4.358;2023-04-22T11:37:42;13.60;99.90
7576;DHT22;3829;50.798;4.358;2023-04-22T11:40:09;13.50;99.90
7576;DHT22;3829;50.798;4.358;2023-04-22T11:42:36;13.60;99.90
7576;DHT22;3829;50.798;4.358;2023-04-22T11:45:02;13.60;99.90
7576;DHT22;3829;50.798;4.358;2023-04-22T11:47:29;13.60;99.90
7576;DHT22;3829;50.798;4.358;2023-04-22T11:49:57;13.60;99.90
7576;DHT22;3829;50.798;4.358;2023-04-22T11:52:24;13.70;99.90
7576;DHT22;3829;50.798;4.358;2023-04-22T11:54:50;13.80;99.90
7576;DHT22;3829;50.798;4.358;2023-04-22T11:57:16;13.80;99.90
7576;DHT22;3829;50.798;4.358;2023-04-22T11:59:42;13.80;99.90
7576;DHT22;3829;50.798;4.358;2023-04-22T12:02:09;13.80;99.90
7576;DHT22;3829;50.798;4.358;2023-04-22T12:04:39;13.80;99.90
7576;DHT22;3829;50.798;4.358;2023-04-22T12:07:05;13.70;99.90
7576;DHT22;3829;50.798;4.358;2023-04-22T12:09:33;13.50;99.90
7576;DHT22;3829;50.798;4.358;2023-04-22T12:11:58;13.50;99.90
7576;DHT22;3829;50.798;4.358;2023-04-22T12:14:31;13.60;99.90
7576;DHT22;3829;50.798;4.358;2023-04-22T12:16:56;13.60;99.90
7576;DHT22;3829;50.798;4.358;2023-04-22T12:19:25;13.60;99.90
7576;DHT22;3829;50.798;4.358;2023-04-22T12:21:54;13.60;99.90
7576;DHT22;3829;50.798;4.358;2023-04-22T12:24:26;13.50;99.90
7576;DHT22;3829;50.798;4.358;2023-04-22T12:26:52;13.50;99.90
7576;DHT22;3829;50.798;4.358;2023-04-22T12:29:26;13.60;99.90
7576;DHT22;3829;50.798;4.358;2023-04-22T12:31:52;13.40;99.90
7576;DHT22;3829;50.798;4.358;2023-04-22T12:34:17;13.30;99.90
7576;DHT22;3829;50.798;4.358;2023-04-22T12:36:43;13.40;99.90
7576;DHT22;3829;50.798;4.358;2023-04-22T12:39:09;13.40;99.90
7576;DHT22;3829;50.798;4.358;2023-04-22T12:41:35;13.50;99.90
7576;DHT22;3829;50.798;4.358;2023-04-22T12:44:00;13.60;99.90
7576;DHT22;3829;50.798;4.358;2023-04-22T12:46:26;13.80;99.90
7576;DHT22;3829;50.798;4.358;2023-04-22T12:48:51;13.90;99.90
7576;DHT22;3829;50.798;4.358;2023-04-22T12:51:17;14.10;99.90
7576;DHT22;3829;50.798;4.358;2023-04-22T12:53:43;14.40;99.90
7576;DHT22;3829;50.798;4.358;2023-04-22T12:56:08;14.60;99.90
7576;DHT22;3829;50.798;4.358;2023-04-22T12:58:34;14.60;99.90
7576;DHT22;3829;50.798;4.358;2023-04-22T13:01:00;14.60;99.90
7576;DHT22;3829;50.798;4.358;2023-04-22T13:03:25;14.40;99.90
7576;DHT22;3829;50.798;4.358;2023-04-22T13:05:51;14.30;99.90
7576;DHT22;3829;50.798;4.358;2023-04-22T13:08:17;14.20;99.90
7576;DHT22;3829;50.798;4.358;2023-04-22T13:10:42;14.20;99.90
7576;DHT22;3829;50.798;4.358;2023-04-22T13:13:08;14.20;99.90
7576;DHT22;3829;50.798;4.358;2023-04-22T13:15:34;14.00;99.90
7576;DHT22;3829;50.798;4.358;2023-04-22T13:18:01;13.80;99.90
7576;DHT22;3829;50.798;4.358;2023-04-22T13:20:26;13.80;99.90
7576;DHT22;3829;50.798;4.358;2023-04-22T13:22:52;13.90;99.90
7576;DHT22;3829;50.798;4.358;2023-04-22T13:25:17;14.00;99.90
7576;DHT22;3829;50.798;4.358;2023-04-22T13:27:43;13.70;99.90
7576;DHT22;3829;50.798;4.358;2023-04-22T13:30:09;13.70;99.90
7576;DHT22;3829;50.798;4.358;2023-04-22T13:32:35;13.70;99.90
7576;DHT22;3829;50.798;4.358;2023-04-22T13:35:00;13.60;99.90
7576;DHT22;3829;50.798;4.358;2023-04-22T13:37:26;13.60;99.90
7576;DHT22;3829;50.798;4.358;2023-04-22T13:39:51;13.60;99.90
7576;DHT22;3829;50.798;4.358;2023-04-22T13:42:17;13.60;99.90
7576;DHT22;3829;50.798;4.358;2023-04-22T13:44:43;13.50;99.90
7576;DHT22;3829;50.798;4.358;2023-04-22T13:47:08;13.30;99.90
7576;DHT22;3829;50.798;4.358;2023-04-22T13:49:34;13.20;99.90
7576;DHT22;3829;50.798;4.358;2023-04-22T13:52:00;13.20;99.90
7576;DHT22;3829;50.798;4.358;2023-04-22T13:54:26;13.20;99.90
7576;DHT22;3829;50.798;4.358;2023-04-22T13:56:52;13.10;99.90
7576;DHT22;3829;50.798;4.358;2023-04-22T13:59:18;13.00;99.90
7576;DHT22;3829;50.798;4.358;2023-04-22T14:01:43;12.80;99.90
7576;DHT22;3829;50.798;4.358;2023-04-22T14:04:09;12.90;99.90
7576;DHT22;3829;50.798;4.358;2023-04-22T14:06:35;12.90;99.90
7576;DHT22;3829;50.798;4.358;2023-04-22T14:09:01;12.90;99.90
7576;DHT22;3829;50.798;4.358;2023-04-22T14:11:28;12.90;99.90
7576;DHT22;3829;50.798;4.358;2023-04-22T14:13:54;12.80;99.90
7576;DHT22;3829;50.798;4.358;2023-04-22T14:16:20;12.70;99.90
7576;DHT22;3829;50.798;4.358;2023-04-22T14:18:45;12.70;99.90
7576;DHT22;3829;50.798;4.358;2023-04-22T14:21:11;12.60;99.90
7576;DHT22;3829;50.798;4.358;2023-04-22T14:23:38;12.40;99.90
7576;DHT22;3829;50.798;4.358;2023-04-22T14:26:06;12.40;99.90
7576;DHT22;3829;50.798;4.358;2023-04-22T14:28:32;12.40;99.90
7576;DHT22;3829;50.798;4.358;2023-04-22T14:30:57;12.30;99.90
7576;DHT22;3829;50.798;4.358;2023-04-22T14:33:24;12.10;99.90
7576;DHT22;3829;50.798;4.358;2023-04-22T14:35:51;12.00;99.90
7576;DHT22;3829;50.798;4.358;2023-04-22T14:38:17;11.80;99.90
7576;DHT22;3829;50.798;4.358;2023-04-22T14:40:43;11.80;99.90
7576;DHT22;3829;50.798;4.358;2023-04-22T14:43:08;11.70;99.90
7576;DHT22;3829;50.798;4.358;2023-04-22T14:45:34;11.80;99.90
7576;DHT22;3829;50.798;4.358;2023-04-22T14:48:00;11.70;99.90
7576;DHT22;3829;50.798;4.358;2023-04-22T14:50:26;11.70;99.90
7576;DHT22;3829;50.798;4.358;2023-04-22T14:52:52;11.70;99.90
7576;DHT22;3829;50.798;4.358;2023-04-22T14:55:19;11.80;99.90
7576;DHT22;3829;50.798;4.358;2023-04-22T14:57:46;11.70;99.90
7576;DHT22;3829;50.798;4.358;2023-04-22T15:00:12;11.70;99.90
7576;DHT22;3829;50.798;4.358;2023-04-22T15:02:38;11.80;99.90
7576;DHT22;3829;50.798;4.358;2023-04-22T15:05:04;11.70;99.90
7576;DHT22;3829;50.798;4.358;2023-04-22T15:07:30;11.60;99.90
7576;DHT22;3829;50.798;4.358;2023-04-22T15:09:56;11.50;99.90
7576;DHT22;3829;50.798;4.358;2023-04-22T15:12:24;11.60;99.90
7576;DHT22;3829;50.798;4.358;2023-04-22T15:14:51;11.70;99.90
7576;DHT22;3829;50.798;4.358;2023-04-22T15:17:17;11.80;99.90
7576;DHT22;3829;50.798;4.358;2023-04-22T15:19:43;11.80;99.90
7576;DHT22;3829;50.798;4.358;2023-04-22T15:22:08;12.10;99.90
7576;DHT22;3829;50.798;4.358;2023-04-22T15:24:34;12.20;99.90
7576;DHT22;3829;50.798;4.358;2023-04-22T15:27:00;12.10;99.90
7576;DHT22;3829;50.798;4.358;2023-04-22T15:29:27;12.00;99.90
7576;DHT22;3829;50.798;4.358;2023-04-22T15:31:53;11.90;99.90
7576;DHT22;3829;50.798;4.358;2023-04-22T15:34:18;11.90;99.90
7576;DHT22;3829;50.798;4.358;2023-04-22T15:36:44;11.90;99.90
7576;DHT22;3829;50.798;4.358;2023-04-22T15:39:10;12.10;99.90
7576;DHT22;3829;50.798;4.358;2023-04-22T15:41:36;12.20;99.90
7576;DHT22;3829;50.798;4.358;2023-04-22T15:44:02;12.50;99.90
7576;DHT22;3829;50.798;4.358;2023-04-22T15:46:29;12.60;99.90
7576;DHT22;3829;50.798;4.358;2023-04-22T15:48:56;12.50;99.90
7576;DHT22;3829;50.798;4.358;2023-04-22T15:51:22;12.40;99.90
7576;DHT22;3829;50.798;4.358;2023-04-22T15:53:47;12.40;99.90
7576;DHT22;3829;50.798;4.358;2023-04-22T15:56:13;12.50;99.90
7576;DHT22;3829;50.798;4.358;2023-04-22T15:58:40;12.40;99.90
7576;DHT22;3829;50.798;4.358;2023-04-22T16:01:06;12.40;99.90